KLM9373 LKPR-LZIB
Flight info
| Callsign | KLM9373 |
|---|---|
| Flight time | N/A |
| Altitude | 21000 |
| Route | VOZ DCT LIKSA DCT ODNEM M748 BERVA |
| Aircraft | A20N/M-SDE2E3FGHIRWXY/LB1 |
Departure
| Time | 2026-05-07 17:51 |
|---|---|
| Airport | Václav Havel Airport Prague (LKPR) |
Arrival
| Time | N/A |
|---|---|
| Airport | M. R. Štefánik Airport (LZIB) |
| Time | Latitude | Longitude | Altitude | Speed | Heading |
|---|---|---|---|---|---|
| 2026-05-07 17:11 | 50.10735 | 14.26296 | 1178 ft | 0 kts | 222° |
| 2026-05-07 17:38 | 50.10741 | 14.26304 | 1178 ft | 4 kts | 220° |
| 2026-05-07 17:39 | 50.10763 | 14.26328 | 1172 ft | 4 kts | 216° |
| 2026-05-07 17:39 | 50.10776 | 14.26344 | 1172 ft | 2 kts | 303° |
| 2026-05-07 17:39 | 50.10775 | 14.26347 | 1172 ft | 1 kts | 304° |
| 2026-05-07 17:42 | 50.10775 | 14.26348 | 1172 ft | 0 kts | 304° |
| 2026-05-07 17:44 | 50.10774 | 14.26348 | 1172 ft | 0 kts | 304° |
| 2026-05-07 17:44 | 50.10774 | 14.26349 | 1172 ft | 0 kts | 304° |
| 2026-05-07 17:44 | 50.10793 | 14.26292 | 1174 ft | 19 kts | 284° |
| 2026-05-07 17:44 | 50.10737 | 14.26186 | 1176 ft | 35 kts | 221° |
| 2026-05-07 17:45 | 50.10608 | 14.26041 | 1183 ft | 34 kts | 214° |
| 2026-05-07 17:45 | 50.10456 | 14.26022 | 1190 ft | 22 kts | 136° |
| 2026-05-07 17:45 | 50.10318 | 14.26353 | 1194 ft | 20 kts | 115° |
| 2026-05-07 17:45 | 50.10263 | 14.26471 | 1196 ft | 21 kts | 127° |
| 2026-05-07 17:46 | 50.10171 | 14.26663 | 1203 ft | 23 kts | 127° |
| 2026-05-07 17:46 | 50.10035 | 14.26945 | 1209 ft | 26 kts | 127° |
| 2026-05-07 17:46 | 50.09955 | 14.27106 | 1210 ft | 29 kts | 128° |
| 2026-05-07 17:46 | 50.09823 | 14.27364 | 1211 ft | 31 kts | 134° |
| 2026-05-07 17:47 | 50.09651 | 14.27582 | 1218 ft | 32 kts | 141° |
| 2026-05-07 17:47 | 50.09504 | 14.27814 | 1228 ft | 26 kts | 98° |
| 2026-05-07 17:47 | 50.09425 | 14.27975 | 1232 ft | 22 kts | 137° |
| 2026-05-07 17:47 | 50.09301 | 14.28147 | 1247 ft | 28 kts | 141° |
| 2026-05-07 17:48 | 50.09285 | 14.28174 | 1237 ft | 12 kts | 123° |
| 2026-05-07 17:48 | 50.09241 | 14.28237 | 1243 ft | 0 kts | 153° |
| 2026-05-07 17:48 | 50.09232 | 14.28245 | 1241 ft | 18 kts | 153° |
| 2026-05-07 17:49 | 50.09207 | 14.28255 | 1252 ft | 0 kts | 185° |
| 2026-05-07 17:50 | 50.09115 | 14.28222 | 1248 ft | 29 kts | 213° |
| 2026-05-07 17:50 | 50.09096 | 14.28087 | 1240 ft | 16 kts | 299° |
| 2026-05-07 17:50 | 50.09315 | 14.27602 | 1231 ft | 108 kts | 307° |
| 2026-05-07 17:51 | 50.09958 | 14.26247 | 1297 ft | 190 kts | 305° |
| 2026-05-07 17:51 | 50.10825 | 14.24584 | 2422 ft | 206 kts | 310° |
| 2026-05-07 17:51 | 50.11727 | 14.22741 | 3540 ft | 222 kts | 308° |
| 2026-05-07 17:51 | 50.12684 | 14.20718 | 4423 ft | 244 kts | 306° |
| 2026-05-07 17:52 | 50.13750 | 14.18464 | 4830 ft | 272 kts | 305° |
| 2026-05-07 17:52 | 50.14920 | 14.15992 | 5139 ft | 292 kts | 303° |
| 2026-05-07 17:52 | 50.15781 | 14.13003 | 5030 ft | 317 kts | 282° |
| 2026-05-07 17:52 | 50.15798 | 14.09512 | 5001 ft | 329 kts | 259° |
| 2026-05-07 17:53 | 50.14922 | 14.06186 | 5017 ft | 339 kts | 238° |
| 2026-05-07 17:53 | 50.13264 | 14.03538 | 5022 ft | 348 kts | 216° |
| 2026-05-07 17:53 | 50.11049 | 14.01979 | 5023 ft | 355 kts | 195° |
| 2026-05-07 17:53 | 50.08576 | 14.01750 | 5017 ft | 361 kts | 175° |
| 2026-05-07 17:54 | 50.06172 | 14.02897 | 5015 ft | 366 kts | 154° |
| 2026-05-07 17:54 | 50.04146 | 14.05304 | 5012 ft | 369 kts | 133° |
| 2026-05-07 17:54 | 50.02765 | 14.08657 | 5009 ft | 371 kts | 113° |
| 2026-05-07 17:54 | 50.02108 | 14.12540 | 4994 ft | 372 kts | 101° |
| 2026-05-07 17:55 | 50.01483 | 14.16432 | 5010 ft | 372 kts | 109° |
| 2026-05-07 17:55 | 50.00432 | 14.20111 | 5008 ft | 373 kts | 120° |
| 2026-05-07 17:55 | 49.99025 | 14.23480 | 4995 ft | 372 kts | 127° |
| 2026-05-07 17:55 | 49.97415 | 14.26615 | 5005 ft | 371 kts | 131° |
| 2026-05-07 17:56 | 49.95714 | 14.29629 | 4998 ft | 371 kts | 133° |
| 2026-05-07 17:56 | 49.94003 | 14.32561 | 4996 ft | 371 kts | 134° |
| 2026-05-07 17:56 | 49.92263 | 14.35520 | 5004 ft | 371 kts | 134° |
| 2026-05-07 17:56 | 49.90526 | 14.38480 | 5006 ft | 371 kts | 133° |
| 2026-05-07 17:57 | 49.88818 | 14.41401 | 5474 ft | 357 kts | 133° |
| 2026-05-07 17:57 | 49.87711 | 14.43298 | 6041 ft | 346 kts | 133° |
| 2026-05-07 17:57 | 49.85647 | 14.46842 | 7319 ft | 323 kts | 133° |
| 2026-05-07 17:57 | 49.84158 | 14.49397 | 8199 ft | 318 kts | 134° |
| 2026-05-07 17:58 | 49.82668 | 14.51949 | 8820 ft | 321 kts | 134° |
| 2026-05-07 17:58 | 49.81168 | 14.54513 | 9457 ft | 322 kts | 134° |
| 2026-05-07 17:58 | 49.79658 | 14.57094 | 10042 ft | 324 kts | 134° |
| 2026-05-07 17:58 | 49.78148 | 14.59694 | 10582 ft | 326 kts | 133° |
| 2026-05-07 17:59 | 49.76690 | 14.62391 | 11109 ft | 327 kts | 132° |
| 2026-05-07 17:59 | 49.75213 | 14.65069 | 11670 ft | 328 kts | 135° |
| 2026-05-07 17:59 | 49.73649 | 14.67639 | 12237 ft | 328 kts | 137° |
| 2026-05-07 17:59 | 49.72069 | 14.70196 | 12812 ft | 329 kts | 136° |
| 2026-05-07 18:00 | 49.70499 | 14.72774 | 13395 ft | 330 kts | 136° |
| 2026-05-07 18:00 | 49.68938 | 14.75381 | 13954 ft | 331 kts | 136° |
| 2026-05-07 18:00 | 49.67384 | 14.78001 | 14502 ft | 331 kts | 136° |
| 2026-05-07 18:00 | 49.65830 | 14.80632 | 15030 ft | 332 kts | 136° |
| 2026-05-07 18:01 | 49.64272 | 14.83270 | 15582 ft | 333 kts | 136° |
| 2026-05-07 18:01 | 49.62693 | 14.85941 | 15880 ft | 342 kts | 136° |
| 2026-05-07 18:01 | 49.61062 | 14.88694 | 15980 ft | 354 kts | 136° |